Time;durP1;ratioP1;P1;durP2;ratioP2;P2;SDS_P1;SDS_P2;PMS_P1;PMS_P2;Temp;Humidity;BMP_temperature;BMP_pressure;BME280_temperature;BME280_humidity;BME280_pressure;Samples;Min_cycle;Max_cycle;Signal;HPM_P1;HPM_P2
2023/10/27 00:01:53;;;;;;;;;;;;;;;;;;6181471;28;19909;-73
2023/10/27 00:04:53;;;;;;;;;;;;;;;;;;6191267;28;19906;-73
2023/10/27 00:07:53;;;;;;;;;;;;;;;;;;6195611;28;19910;-73
2023/10/27 00:10:53;;;;;;;;;;;;;;;;;;6196662;28;19917;-73
2023/10/27 00:13:54;;;;;;;;;;;;;;;;;;6184300;28;20278;-73
2023/10/27 00:16:54;;;;;;;;;;;;;;;;;;6184133;28;20366;-73
2023/10/27 00:19:55;;;;;;;;;;;;;;;;;;6176902;28;20031;-73
2023/10/27 00:22:55;;;;;;;;;;;;;;;;;;6196676;28;20377;-74
2023/10/27 00:25:55;;;;;;;;;;;;;;;;;;6196433;28;19906;-73
2023/10/27 00:28:55;;;;;;;;;;;;;;;;;;5854854;27;10000440;-73
2023/10/27 00:31:56;;;;;;;;;;;;;;;;;;6198519;28;19905;-74
2023/10/27 00:34:56;;;;;;;;;;;;;;;;;;6196753;28;19932;-75
2023/10/27 00:37:57;;;;;;;;;;;;;;;;;;6169980;28;19922;-74
2023/10/27 00:40:57;;;;;;;;;;;;;;;;;;6176075;28;20294;-74
2023/10/27 00:43:58;;;;;;;;;;;;;;;;;;6187524;28;19951;-74
2023/10/27 00:46:58;;;;;;;;;;;;;;;;;;6198229;28;19914;-73
2023/10/27 00:49:58;;;;;;;;;;;;;;;;;;6196807;28;19944;-73
2023/10/27 00:52:58;;;;;;;;;;;;;;;;;;6182105;28;19914;-73
2023/10/27 00:55:58;;;;;;;;;;;;;;;;;;6195477;28;19916;-73
2023/10/27 00:58:59;;;;;;;;;;;;;;;;;;6196687;28;20366;-73
2023/10/27 01:01:59;;;;;;;;;;;;;;;;;;6204102;28;19952;-73
2023/10/27 01:04:59;;;;;;;;;;;;;;;;;;6193201;28;19996;-74
2023/10/27 01:07:59;;;;;;;;;;;;;;;;;;6197008;28;19906;-74
2023/10/27 01:10:59;;;;;;;;;;;;;;;;;;6196296;28;20008;-74
2023/10/27 01:14:00;;;;;;;;;;;;;;;;;;6196982;28;19918;-73
2023/10/27 01:17:00;;;;;;;;;;;;;;;;;;6193917;28;19917;-74
2023/10/27 01:20:00;;;;;;;;;;;;;;;;;;6176460;28;19914;-73
2023/10/27 01:23:00;;;;;;;;;;;;;;;;;;6196720;28;20327;-73
2023/10/27 01:26:00;;;;;;;;;;;;;;;;;;6193704;28;19921;-74
2023/10/27 01:29:00;;;;;;;;;;;;;;;;;;6177306;28;19918;-73
2023/10/27 01:32:01;;;;;;;;;;;;;;;;;;6185648;28;19910;-74
2023/10/27 01:35:01;;;;;;;;;;;;;;;;;;6189776;28;20071;-74
2023/10/27 01:38:01;;;;;;;;;;;;;;;;;;6179919;28;19940;-77
2023/10/27 01:41:01;;;;;;;;;;;;;;;;;;6172392;28;20388;-77
2023/10/27 01:44:01;;;;;;;;;;;;;;;;;;6177985;28;20004;-77
2023/10/27 01:47:01;;;;;;;;;;;;;;;;;;6189004;28;20067;-76
2023/10/27 01:50:01;;;;;;;;;;;;;;;;;;6188007;28;19981;-77
2023/10/27 01:53:02;;;;;;;;;;;;;;;;;;6181179;28;20013;-76
2023/10/27 01:56:02;;;;;;;;;;;;;;;;;;6173148;28;20001;-76
2023/10/27 01:59:02;;;;;;;;;;;;;;;;;;6182662;28;19918;-76
2023/10/27 02:02:02;;;;;;;;;;;;;;;;;;6192800;28;19914;-76
2023/10/27 02:05:03;;;;;;;;;;;;;;;;;;6186191;28;19931;-76
2023/10/27 02:08:04;;;;;;;;;;;;;;;;;;6174194;28;19960;-76
2023/10/27 02:11:04;;;;;;;;;;;;;;;;;;6178547;28;19916;-77
2023/10/27 02:14:04;;;;;;;;;;;;;;;;;;6191133;28;19914;-77
2023/10/27 02:17:04;;;;;;;;;;;;;;;;;;6185115;28;19917;-77
2023/10/27 02:20:04;;;;;;;;;;;;;;;;;;6194946;28;19905;-77
2023/10/27 02:23:05;;;;;;;;;;;;;;;;;;6181794;28;19906;-77
2023/10/27 02:26:05;;;;;;;;;;;;;;;;;;6186634;28;19909;-77
2023/10/27 02:29:05;;;;;;;;;;;;;;;;;;6186478;28;19996;-77
2023/10/27 02:32:05;;;;;;;;;;;;;;;;;;6185243;28;19956;-77
2023/10/27 02:35:05;;;;;;;;;;;;;;;;;;6189928;28;19944;-76
2023/10/27 02:38:05;;;;;;;;;;;;;;;;;;6180035;28;20052;-76
2023/10/27 02:41:08;;;;;;;;;;;;;;;;;;6172518;28;19918;-76
2023/10/27 02:44:09;;;;;;;;;;;;;;;;;;6168843;28;20032;-77
2023/10/27 02:47:09;;;;;;;;;;;;;;;;;;6184787;28;20424;-77
2023/10/27 02:50:09;;;;;;;;;;;;;;;;;;6184957;28;20405;-76
2023/10/27 02:53:09;;;;;;;;;;;;;;;;;;6183692;28;19917;-77
2023/10/27 02:56:09;;;;;;;;;;;;;;;;;;6194975;28;19909;-77
2023/10/27 02:59:09;;;;;;;;;;;;;;;;;;6177924;28;19913;-77
2023/10/27 03:02:11;;;;;;;;;;;;;;;;;;6176286;28;19917;-76
2023/10/27 03:05:11;;;;;;;;;;;;;;;;;;6192439;28;19935;-77
2023/10/27 03:08:11;;;;;;;;;;;;;;;;;;6193143;28;19906;-77
2023/10/27 03:11:11;;;;;;;;;;;;;;;;;;6195694;28;19913;-77
2023/10/27 03:14:12;;;;;;;;;;;;;;;;;;6192027;28;19964;-77
2023/10/27 03:17:12;;;;;;;;;;;;;;;;;;6186965;28;19969;-76
2023/10/27 03:20:12;;;;;;;;;;;;;;;;;;6169508;28;19906;-77
2023/10/27 03:23:12;;;;;;;;;;;;;;;;;;6170025;28;19913;-76
2023/10/27 03:26:13;;;;;;;;;;;;;;;;;;6171147;28;19948;-77
2023/10/27 03:29:13;;;;;;;;;;;;;;;;;;6186082;28;19909;-77
2023/10/27 03:32:14;;;;;;;;;;;;;;;;;;6171335;28;19992;-77
2023/10/27 03:35:15;;;;;;;;;;;;;;;;;;6169308;28;19912;-77
2023/10/27 03:38:15;;;;;;;;;;;;;;;;;;6177136;28;19918;-77
2023/10/27 03:41:15;;;;;;;;;;;;;;;;;;6185670;28;19918;-77
2023/10/27 03:44:15;;;;;;;;;;;;;;;;;;6174943;28;20286;-77
2023/10/27 03:47:15;;;;;;;;;;;;;;;;;;6183876;28;20389;-77
2023/10/27 03:50:15;;;;;;;;;;;;;;;;;;6182168;28;19910;-76
2023/10/27 03:53:17;;;;;;;;;;;;;;;;;;6174444;28;20374;-76
2023/10/27 03:56:17;;;;;;;;;;;;;;;;;;6188529;28;19962;-76
2023/10/27 03:59:19;;;;;;;;;;;;;;;;;;6198741;28;19913;-77
2023/10/27 04:02:19;;;;;;;;;;;;;;;;;;6187533;28;19983;-77
2023/10/27 04:05:19;;;;;;;;;;;;;;;;;;6160674;28;20390;-77
2023/10/27 04:08:19;;;;;;;;;;;;;;;;;;6188667;28;19917;-77
2023/10/27 04:11:20;;;;;;;;;;;;;;;;;;6175032;28;19914;-77
2023/10/27 04:14:20;;;;;;;;;;;;;;;;;;6174256;28;19918;-77
2023/10/27 04:17:20;;;;;;;;;;;;;;;;;;6174322;28;19922;-77
2023/10/27 04:20:20;;;;;;;;;;;;;;;;;;6183416;28;19914;-77
2023/10/27 04:23:20;;;;;;;;;;;;;;;;;;6188463;28;19913;-77
2023/10/27 04:26:20;;;;;;;;;;;;;;;;;;6174607;28;20420;-76
2023/10/27 04:29:20;;;;;;;;;;;;;;;;;;6189905;28;19920;-77
2023/10/27 04:32:20;;;;;;;;;;;;;;;;;;6190391;28;19914;-76
2023/10/27 04:35:21;;;;;;;;;;;;;;;;;;6196855;28;19910;-77
2023/10/27 04:38:21;;;;;;;;;;;;;;;;;;6200990;28;19918;-77
2023/10/27 04:41:21;;;;;;;;;;;;;;;;;;6196478;28;19924;-77
2023/10/27 04:44:23;;;;;;;;;;;;;;;;;;6186688;28;19910;-77
2023/10/27 04:47:23;;;;;;;;;;;;;;;;;;6221940;28;20385;-77
2023/10/27 04:50:24;;;;;;;;;;;;;;;;;;6182192;28;19914;-77
2023/10/27 04:53:24;;;;;;;;;;;;;;;;;;6155757;28;19913;-77
2023/10/27 04:56:26;;;;;;;;;;;;;;;;;;6188278;28;20000;-77
2023/10/27 04:59:26;;;;;;;;;;;;;;;;;;6184919;28;20088;-77
2023/10/27 05:02:26;;;;;;;;;;;;;;;;;;6198687;28;19914;-77
2023/10/27 05:05:26;;;;;;;;;;;;;;;;;;6181527;28;19910;-77
2023/10/27 05:08:26;;;;;;;;;;;;;;;;;;6188578;28;19955;-77
2023/10/27 05:11:26;;;;;;;;;;;;;;;;;;6185720;28;19913;-77
2023/10/27 05:14:26;;;;;;;;;;;;;;;;;;6186847;28;19914;-77
2023/10/27 05:17:27;;;;;;;;;;;;;;;;;;6190756;28;20016;-74
2023/10/27 05:20:27;;;;;;;;;;;;;;;;;;6181037;28;19959;-74
2023/10/27 05:23:27;;;;;;;;;;;;;;;;;;6191411;28;19970;-74
2023/10/27 05:26:27;;;;;;;;;;;;;;;;;;6183448;28;19910;-74
2023/10/27 05:29:27;;;;;;;;;;;;;;;;;;6192003;28;19913;-74
2023/10/27 05:32:27;;;;;;;;;;;;;;;;;;6200848;28;19913;-75
2023/10/27 05:35:27;;;;;;;;;;;;;;;;;;6190546;28;19910;-74
2023/10/27 05:38:27;;;;;;;;;;;;;;;;;;6177825;28;20008;-74
2023/10/27 05:41:27;;;;;;;;;;;;;;;;;;6184060;28;19963;-74
2023/10/27 05:44:28;;;;;;;;;;;;;;;;;;6186872;28;19909;-74
2023/10/27 05:47:28;;;;;;;;;;;;;;;;;;6176222;28;19909;-74
2023/10/27 05:50:28;;;;;;;;;;;;;;;;;;6171253;28;19942;-74
2023/10/27 05:53:28;;;;;;;;;;;;;;;;;;6160197;28;21259;-74
2023/10/27 05:56:28;;;;;;;;;;;;;;;;;;6186479;28;20259;-74
2023/10/27 05:59:29;;;;;;;;;;;;;;;;;;6184735;28;19917;-74
2023/10/27 06:02:29;;;;;;;;;;;;;;;;;;6183536;28;19913;-75
2023/10/27 06:05:29;;;;;;;;;;;;;;;;;;6193618;28;19914;-74
2023/10/27 06:08:29;;;;;;;;;;;;;;;;;;6194132;28;19995;-74
2023/10/27 06:11:29;;;;;;;;;;;;;;;;;;6181372;28;20009;-75
2023/10/27 06:14:29;;;;;;;;;;;;;;;;;;6190633;28;20677;-74
2023/10/27 06:17:29;;;;;;;;;;;;;;;;;;6179030;28;20362;-74
2023/10/27 06:20:29;;;;;;;;;;;;;;;;;;6172673;28;19955;-74
2023/10/27 06:23:38;;;;;;;;;;;;;;;;;;6343574;27;20006;-75
2023/10/27 06:26:38;;;;;;;;;;;;;;;;;;6344355;28;19980;-78
2023/10/27 06:29:38;;;;;;;;;;;;;;;;;;6315441;28;20103;-79
2023/10/27 06:32:38;;;;;;;;;;;;;;;;;;6317648;28;20373;-78
2023/10/27 06:35:39;;;;;;;;;;;;;;;;;;6309199;28;19913;-78
2023/10/27 06:38:40;;;;;;;;;;;;;;;;;;6304861;28;20391;-79
2023/10/27 06:41:40;;;;;;;;;;;;;;;;;;6315766;28;19920;-79
2023/10/27 06:44:40;;;;;;;;;;;;;;;;;;6306075;28;19920;-79
2023/10/27 06:47:40;;;;;;;;;;;;;;;;;;6305768;28;19927;-79
2023/10/27 06:50:41;;;;;;;;;;;;;;;;;;6313829;28;19916;-78
2023/10/27 06:53:41;;;;;;;;;;;;;;;;;;6311141;28;19931;-79
2023/10/27 06:56:41;;;;;;;;;;;;;;;;;;6313956;28;19947;-79
2023/10/27 06:59:41;;;;;;;;;;;;;;;;;;6311580;28;19908;-79
2023/10/27 07:02:41;;;;;;;;;;;;;;;;;;6331963;28;19921;-79
2023/10/27 07:05:42;;;;;;;;;;;;;;;;;;6314674;28;19916;-79
2023/10/27 07:08:42;;;;;;;;;;;;;;;;;;6313666;28;19955;-80
2023/10/27 07:11:42;;;;;;;;;;;;;;;;;;6302028;28;19920;-79
2023/10/27 07:14:44;;;;;;;;;;;;;;;;;;6293275;28;19917;-80
2023/10/27 07:17:44;;;;;;;;;;;;;;;;;;6308172;28;20019;-79
2023/10/27 07:20:44;;;;;;;;;;;;;;;;;;6307162;28;20336;-79
2023/10/27 07:23:44;;;;;;;;;;;;;;;;;;6310744;28;19928;-79
2023/10/27 07:26:44;;;;;;;;;;;;;;;;;;6315218;28;19916;-79
2023/10/27 07:29:46;;;;;;;;;;;;;;;;;;6311283;28;19931;-80
2023/10/27 07:32:47;;;;;;;;;;;;;;;;;;6313223;28;20277;-80
2023/10/27 07:35:47;;;;;;;;;;;;;;;;;;6296771;28;19913;-79
2023/10/27 07:38:47;;;;;;;;;;;;;;;;;;6293520;28;19917;-75
2023/10/27 07:41:48;;;;;;;;;;;;;;;;;;6292400;28;19917;-75
2023/10/27 07:44:48;;;;;;;;;;;;;;;;;;6294806;28;19962;-75
2023/10/27 07:47:48;;;;;;;;;;;;;;;;;;6277370;28;19952;-75
2023/10/27 07:50:48;;;;;;;;;;;;;;;;;;6291866;28;20007;-75
2023/10/27 07:53:49;;;;;;;;;;;;;;;;;;6290052;28;20961;-77
2023/10/27 07:56:49;;;;;;;;;;;;;;;;;;6288509;28;20357;-75
2023/10/27 07:59:49;;;;;;;;;;;;;;;;;;6299140;28;19912;-75
2023/10/27 08:02:49;;;;;;;;;;;;;;;;;;6284091;28;19927;-76
2023/10/27 08:05:49;;;;;;;;;;;;;;;;;;6289266;28;19916;-75
2023/10/27 08:08:49;;;;;;;;;;;;;;;;;;6293093;28;19964;-77
2023/10/27 08:11:49;;;;;;;;;;;;;;;;;;6293108;28;20297;-75
2023/10/27 08:14:51;;;;;;;;;;;;;;;;;;6298701;28;20489;-79
2023/10/27 08:17:51;;;;;;;;;;;;;;;;;;6291134;28;19932;-80
2023/10/27 08:20:51;;;;;;;;;;;;;;;;;;6289251;28;20444;-79
2023/10/27 08:23:51;;;;;;;;;;;;;;;;;;6297827;28;19924;-83
2023/10/27 08:26:52;;;;;;;;;;;;;;;;;;6303864;28;19912;-81
2023/10/27 08:29:52;;;;;;;;;;;;;;;;;;6294305;28;19912;-79
2023/10/27 08:32:53;;;;;;;;;;;;;;;;;;6292674;28;19919;-80
2023/10/27 08:35:53;;;;;;;;;;;;;;;;;;6289636;28;19939;-79
2023/10/27 08:38:53;;;;;;;;;;;;;;;;;;6293130;28;19920;-81
2023/10/27 08:41:53;;;;;;;;;;;;;;;;;;6295232;28;20014;-81
2023/10/27 08:44:54;;;;;;;;;;;;;;;;;;6293690;28;19931;-81
2023/10/27 08:47:55;;;;;;;;;;;;;;;;;;6308367;28;19927;-81
2023/10/27 08:50:55;;;;;;;;;;;;;;;;;;6281463;28;19917;-81
2023/10/27 08:53:55;;;;;;;;;;;;;;;;;;6292469;28;19923;-80
2023/10/27 08:56:55;;;;;;;;;;;;;;;;;;6290018;28;19920;-80
2023/10/27 08:59:56;;;;;;;;;;;;;;;;;;6298989;28;19954;-81
2023/10/27 09:02:56;;;;;;;;;;;;;;;;;;6298353;28;19913;-82
2023/10/27 09:05:56;;;;;;;;;;;;;;;;;;6292568;28;19972;-81
2023/10/27 09:08:56;;;;;;;;;;;;;;;;;;6298262;28;20311;-81
2023/10/27 09:11:57;;;;;;;;;;;;;;;;;;6298074;28;19939;-80
2023/10/27 09:14:57;;;;;;;;;;;;;;;;;;6290935;28;19916;-81
2023/10/27 09:17:57;;;;;;;;;;;;;;;;;;6294144;28;19912;-80
2023/10/27 09:20:57;;;;;;;;;;;;;;;;;;6290412;28;19920;-79
2023/10/27 09:23:58;;;;;;;;;;;;;;;;;;6296714;28;19946;-79
2023/10/27 09:26:59;;;;;;;;;;;;;;;;;;6276611;28;20373;-80
2023/10/27 09:29:59;;;;;;;;;;;;;;;;;;6276561;28;19919;-79
2023/10/27 09:32:59;;;;;;;;;;;;;;;;;;6295877;28;19912;-79
2023/10/27 09:36:02;;;;;;;;;;;;;;;;;;6287641;28;19913;-79
2023/10/27 09:39:04;;;;;;;;;;;;;;;;;;6279300;28;19924;-81
2023/10/27 09:42:05;;;;;;;;;;;;;;;;;;6292215;28;20022;-80
2023/10/27 09:45:05;;;;;;;;;;;;;;;;;;6287297;28;19916;-80
2023/10/27 09:48:06;;;;;;;;;;;;;;;;;;6291798;28;19916;-80
2023/10/27 09:51:06;;;;;;;;;;;;;;;;;;6312118;28;19909;-79
2023/10/27 09:54:06;;;;;;;;;;;;;;;;;;6290187;28;19920;-79
2023/10/27 09:57:07;;;;;;;;;;;;;;;;;;6297581;28;19908;-79
2023/10/27 10:00:08;;;;;;;;;;;;;;;;;;6297658;28;19909;-80
2023/10/27 10:03:08;;;;;;;;;;;;;;;;;;6292216;28;19920;-80
2023/10/27 10:06:10;;;;;;;;;;;;;;;;;;6309918;28;19939;-82
2023/10/27 10:09:10;;;;;;;;;;;;;;;;;;6297608;28;19974;-80
2023/10/27 10:12:10;;;;;;;;;;;;;;;;;;6295484;28;19913;-80
2023/10/27 10:15:10;;;;;;;;;;;;;;;;;;6297642;28;20053;-79
2023/10/27 10:18:10;;;;;;;;;;;;;;;;;;6291772;28;20006;-80
2023/10/27 10:21:11;;;;;;;;;;;;;;;;;;6287509;28;19920;-83
2023/10/27 10:24:11;;;;;;;;;;;;;;;;;;6282442;28;19964;-79
2023/10/27 10:27:12;;;;;;;;;;;;;;;;;;6280515;28;19920;-79
2023/10/27 10:30:12;;;;;;;;;;;;;;;;;;6283423;28;19920;-80
2023/10/27 10:33:12;;;;;;;;;;;;;;;;;;6284034;28;19917;-80
2023/10/27 10:36:18;;;;;;;;;;;;;;;;;;6276713;28;19974;-80
2023/10/27 10:39:18;;;;;;;;;;;;;;;;;;6296635;28;19913;-79
2023/10/27 10:42:18;;;;;;;;;;;;;;;;;;6291023;28;20430;-82
2023/10/27 10:45:18;;;;;;;;;;;;;;;;;;6290031;28;20373;-80
2023/10/27 10:48:19;;;;;;;;;;;;;;;;;;6278452;28;19956;-84
2023/10/27 10:51:29;;;;;;;;;;;;;;;;;;6279352;28;19995;-80
2023/10/27 10:54:29;;;;;;;;;;;;;;;;;;6294681;28;19925;-80
2023/10/27 10:57:29;;;;;;;;;;;;;;;;;;6274143;28;19912;-80
2023/10/27 11:00:30;;;;;;;;;;;;;;;;;;6297154;28;19914;-80
2023/10/27 11:03:31;;;;;;;;;;;;;;;;;;6279562;28;20377;-80
2023/10/27 11:06:31;;;;;;;;;;;;;;;;;;6285159;28;19987;-78
2023/10/27 11:09:32;;;;;;;;;;;;;;;;;;6285348;28;19912;-78
2023/10/27 11:12:32;;;;;;;;;;;;;;;;;;6298361;28;19912;-79
2023/10/27 11:15:32;;;;;;;;;;;;;;;;;;6288061;28;19924;-78
2023/10/27 11:18:32;;;;;;;;;;;;;;;;;;5943774;28;10000177;-78
2023/10/27 11:21:33;;;;;;;;;;;;;;;;;;6291033;28;20838;-81
2023/10/27 11:24:35;;;;;;;;;;;;;;;;;;6293079;28;19916;-79
2023/10/27 11:27:37;;;;;;;;;;;;;;;;;;6312199;28;19931;-80
2023/10/27 11:30:37;;;;;;;;;;;;;;;;;;6313842;28;19912;-79
2023/10/27 11:33:37;;;;;;;;;;;;;;;;;;6291573;28;19916;-79
2023/10/27 11:36:42;;;;;;;;;;;;;;;;;;6309118;28;20019;-79
2023/10/27 11:39:42;;;;;;;;;;;;;;;;;;6283607;28;20374;-79
2023/10/27 11:42:42;;;;;;;;;;;;;;;;;;6283857;28;20359;-78
2023/10/27 11:45:44;;;;;;;;;;;;;;;;;;6298212;28;19912;-86
2023/10/27 11:48:45;;;;;;;;;;;;;;;;;;6279529;28;20067;-78
2023/10/27 11:51:45;;;;;;;;;;;;;;;;;;6279423;28;19995;-79
2023/10/27 11:54:45;;;;;;;;;;;;;;;;;;6287596;28;19947;-80
2023/10/27 11:57:45;;;;;;;;;;;;;;;;;;6288607;28;19928;-78
2023/10/27 12:00:45;;;;;;;;;;;;;;;;;;6290044;28;19921;-81
2023/10/27 12:03:46;;;;;;;;;;;;;;;;;;6289426;28;19972;-80
2023/10/27 12:06:46;;;;;;;;;;;;;;;;;;6287930;28;19917;-80
2023/10/27 12:09:46;;;;;;;;;;;;;;;;;;6293104;28;19916;-79
2023/10/27 12:12:47;;;;;;;;;;;;;;;;;;6280801;28;19920;-80
2023/10/27 12:15:50;;;;;;;;;;;;;;;;;;6279867;28;19920;-80
2023/10/27 12:18:50;;;;;;;;;;;;;;;;;;6288107;28;19912;-80
2023/10/27 12:21:50;;;;;;;;;;;;;;;;;;6288212;28;20007;-80
2023/10/27 12:24:50;;;;;;;;;;;;;;;;;;6287506;28;19917;-80
2023/10/27 12:27:50;;;;;;;;;;;;;;;;;;6295177;28;19932;-79
2023/10/27 12:30:50;;;;;;;;;;;;;;;;;;6295469;28;20365;-79
2023/10/27 12:33:51;;;;;;;;;;;;;;;;;;6292167;28;19931;-81
2023/10/27 12:36:51;;;;;;;;;;;;;;;;;;6292651;28;20368;-79
2023/10/27 12:39:53;;;;;;;;;;;;;;;;;;6288588;28;19916;-80
2023/10/27 12:42:53;;;;;;;;;;;;;;;;;;6291909;28;19916;-79
2023/10/27 12:45:53;;;;;;;;;;;;;;;;;;6303036;28;19913;-80
2023/10/27 12:48:53;;;;;;;;;;;;;;;;;;6290147;28;19934;-80
2023/10/27 12:51:54;;;;;;;;;;;;;;;;;;6285319;28;19912;-80
2023/10/27 12:54:54;;;;;;;;;;;;;;;;;;6290674;28;19928;-80
2023/10/27 12:58:03;;;;;;;;;;;;;;;;;;6288628;28;19920;-80
2023/10/27 13:01:04;;;;;;;;;;;;;;;;;;6277162;28;19916;-80
2023/10/27 13:04:04;;;;;;;;;;;;;;;;;;6292104;28;19989;-80
2023/10/27 13:07:04;;;;;;;;;;;;;;;;;;6284850;28;19934;-80
2023/10/27 13:10:04;;;;;;;;;;;;;;;;;;6294875;28;19923;-80
2023/10/27 13:13:04;;;;;;;;;;;;;;;;;;6298468;28;19924;-79
2023/10/27 13:16:05;;;;;;;;;;;;;;;;;;6298286;28;20365;-80
2023/10/27 13:19:05;;;;;;;;;;;;;;;;;;6275543;28;19912;-82
2023/10/27 13:22:05;;;;;;;;;;;;;;;;;;6299464;28;19936;-82
2023/10/27 13:25:05;;;;;;;;;;;;;;;;;;6290291;28;20344;-82
2023/10/27 13:28:05;;;;;;;;;;;;;;;;;;6292293;28;19927;-82
2023/10/27 13:31:06;;;;;;;;;;;;;;;;;;6290483;28;19916;-82
2023/10/27 13:34:06;;;;;;;;;;;;;;;;;;6284482;28;19959;-82
2023/10/27 13:37:06;;;;;;;;;;;;;;;;;;6290936;28;19924;-82
2023/10/27 13:40:08;;;;;;;;;;;;;;;;;;6288665;28;19916;-82
2023/10/27 13:43:08;;;;;;;;;;;;;;;;;;5930001;28;10000599;-82
2023/10/27 13:46:08;;;;;;;;;;;;;;;;;;6294429;28;19912;-82
2023/10/27 13:49:11;;;;;;;;;;;;;;;;;;6284745;28;19908;-82
2023/10/27 13:52:11;;;;;;;;;;;;;;;;;;6271899;28;20362;-83
2023/10/27 13:55:11;;;;;;;;;;;;;;;;;;6298217;28;19916;-82
2023/10/27 13:58:11;;;;;;;;;;;;;;;;;;6291026;28;19998;-82
2023/10/27 14:01:12;;;;;;;;;;;;;;;;;;6288746;28;19924;-83
2023/10/27 14:04:12;;;;;;;;;;;;;;;;;;6299285;28;19998;-82
2023/10/27 14:07:12;;;;;;;;;;;;;;;;;;6289028;28;19920;-82
2023/10/27 14:10:12;;;;;;;;;;;;;;;;;;6271830;28;20362;-82
2023/10/27 14:13:12;;;;;;;;;;;;;;;;;;6278252;28;19992;-82
2023/10/27 14:16:12;;;;;;;;;;;;;;;;;;6271820;28;19923;-81
2023/10/27 14:19:14;;;;;;;;;;;;;;;;;;6282132;28;19913;-82
2023/10/27 14:22:14;;;;;;;;;;;;;;;;;;6295521;28;19920;-82
2023/10/27 14:25:14;;;;;;;;;;;;;;;;;;6277507;28;20128;-82
2023/10/27 14:28:14;;;;;;;;;;;;;;;;;;6284447;28;19974;-81
2023/10/27 14:31:15;;;;;;;;;;;;;;;;;;6282012;28;20031;-81
2023/10/27 14:34:15;;;;;;;;;;;;;;;;;;6280430;28;20284;-81
2023/10/27 14:37:15;;;;;;;;;;;;;;;;;;6281738;28;19913;-82
2023/10/27 14:40:15;;;;;;;;;;;;;;;;;;6276114;28;19963;-82
2023/10/27 14:43:16;;;;;;;;;;;;;;;;;;6280555;28;20015;-81
2023/10/27 14:46:16;;;;;;;;;;;;;;;;;;6287356;28;19920;-82
2023/10/27 14:49:17;;;;;;;;;;;;;;;;;;6279760;28;19912;-81
2023/10/27 14:52:17;;;;;;;;;;;;;;;;;;6281421;28;19913;-81
2023/10/27 14:55:17;;;;;;;;;;;;;;;;;;6282552;28;20359;-80
2023/10/27 14:58:17;;;;;;;;;;;;;;;;;;6279381;28;19913;-82
2023/10/27 15:01:17;;;;;;;;;;;;;;;;;;6278000;28;19928;-82
2023/10/27 15:04:17;;;;;;;;;;;;;;;;;;6280253;28;19920;-82
2023/10/27 15:07:20;;;;;;;;;;;;;;;;;;6288744;28;19916;-81
2023/10/27 15:10:20;;;;;;;;;;;;;;;;;;6280175;28;19925;-82
2023/10/27 15:13:21;;;;;;;;;;;;;;;;;;6277440;28;19956;-81
2023/10/27 15:16:21;;;;;;;;;;;;;;;;;;6277531;28;19917;-81
2023/10/27 15:19:21;;;;;;;;;;;;;;;;;;6280130;28;19928;-81
2023/10/27 15:22:21;;;;;;;;;;;;;;;;;;6275039;28;20011;-81
2023/10/27 15:25:21;;;;;;;;;;;;;;;;;;6275686;28;19926;-82
2023/10/27 15:28:21;;;;;;;;;;;;;;;;;;6280756;28;19920;-80
2023/10/27 15:31:21;;;;;;;;;;;;;;;;;;6287987;28;20379;-82
2023/10/27 15:34:22;;;;;;;;;;;;;;;;;;6276413;28;19917;-82
2023/10/27 15:37:22;;;;;;;;;;;;;;;;;;6287247;28;20262;-81
2023/10/27 15:40:23;;;;;;;;;;;;;;;;;;6269543;28;19917;-82
2023/10/27 15:43:23;;;;;;;;;;;;;;;;;;5926393;28;10000594;-81
2023/10/27 15:46:23;;;;;;;;;;;;;;;;;;6268544;28;20222;-82
2023/10/27 15:49:23;;;;;;;;;;;;;;;;;;6285219;28;19960;-82
2023/10/27 15:52:24;;;;;;;;;;;;;;;;;;6278668;28;19921;-82
2023/10/27 15:55:24;;;;;;;;;;;;;;;;;;6299993;28;19912;-82
2023/10/27 15:58:24;;;;;;;;;;;;;;;;;;6280139;28;20045;-82
2023/10/27 16:01:24;;;;;;;;;;;;;;;;;;6279930;28;20281;-81
2023/10/27 16:04:24;;;;;;;;;;;;;;;;;;6271100;28;20272;-82
2023/10/27 16:07:25;;;;;;;;;;;;;;;;;;6275396;28;19956;-82
2023/10/27 16:10:25;;;;;;;;;;;;;;;;;;6278607;28;19928;-81
2023/10/27 16:13:25;;;;;;;;;;;;;;;;;;6269531;28;19917;-82
2023/10/27 16:16:26;;;;;;;;;;;;;;;;;;6275630;28;20058;-81
2023/10/27 16:19:27;;;;;;;;;;;;;;;;;;6307244;28;19919;-82
2023/10/27 16:22:28;;;;;;;;;;;;;;;;;;6282006;28;19935;-82
2023/10/27 16:25:28;;;;;;;;;;;;;;;;;;6278401;28;19928;-82
2023/10/27 16:28:28;;;;;;;;;;;;;;;;;;6273848;28;19970;-81
2023/10/27 16:31:28;;;;;;;;;;;;;;;;;;6271257;28;19970;-82
2023/10/27 16:34:28;;;;;;;;;;;;;;;;;;6271293;28;19913;-82
2023/10/27 16:37:29;;;;;;;;;;;;;;;;;;6273105;28;20391;-81
2023/10/27 16:40:29;;;;;;;;;;;;;;;;;;6279155;28;19918;-82
2023/10/27 16:43:33;;;;;;;;;;;;;;;;;;6270034;28;20030;-82
2023/10/27 16:46:33;;;;;;;;;;;;;;;;;;6272055;28;19916;-79
2023/10/27 16:49:33;;;;;;;;;;;;;;;;;;6275745;28;19932;-81
2023/10/27 16:52:34;;;;;;;;;;;;;;;;;;6272119;28;19924;-83
2023/10/27 16:55:34;;;;;;;;;;;;;;;;;;6273497;28;19916;-84
2023/10/27 16:58:34;;;;;;;;;;;;;;;;;;6273705;28;19916;-85
2023/10/27 17:01:34;;;;;;;;;;;;;;;;;;6281075;28;19978;-87
2023/10/27 17:04:34;;;;;;;;;;;;;;;;;;6270486;28;19921;-88
2023/10/27 17:07:35;;;;;;;;;;;;;;;;;;6270527;28;19980;-87
2023/10/27 17:10:35;;;;;;;;;;;;;;;;;;6276443;28;19916;-87
2023/10/27 17:13:37;;;;;;;;;;;;;;;;;;6277357;28;19970;-86
2023/10/27 17:16:37;;;;;;;;;;;;;;;;;;6276171;28;19917;-87
2023/10/27 17:19:37;;;;;;;;;;;;;;;;;;6284810;28;19947;-88
2023/10/27 17:22:37;;;;;;;;;;;;;;;;;;6298032;28;19921;-88
2023/10/27 17:25:37;;;;;;;;;;;;;;;;;;6280771;28;20479;-87
2023/10/27 17:28:41;;;;;;;;;;;;;;;;;;6293367;28;19982;-87
2023/10/27 17:31:41;;;;;;;;;;;;;;;;;;6272995;28;19924;-86
2023/10/27 17:34:42;;;;;;;;;;;;;;;;;;6275086;28;20496;-87
2023/10/27 17:37:42;;;;;;;;;;;;;;;;;;6274780;28;19963;-87
2023/10/27 17:40:42;;;;;;;;;;;;;;;;;;6288853;28;19920;-86
2023/10/27 17:43:42;;;;;;;;;;;;;;;;;;6284840;28;19925;-87
2023/10/27 17:46:44;;;;;;;;;;;;;;;;;;6274954;28;19920;-88
2023/10/27 17:49:44;;;;;;;;;;;;;;;;;;6276893;28;20424;-87
2023/10/27 17:52:45;;;;;;;;;;;;;;;;;;6273846;28;19920;-88
2023/10/27 17:55:45;;;;;;;;;;;;;;;;;;6279022;28;20454;-87
2023/10/27 17:58:46;;;;;;;;;;;;;;;;;;6274584;28;19916;-89
2023/10/27 18:01:48;;;;;;;;;;;;;;;;;;6277115;28;19924;-88
2023/10/27 18:04:49;;;;;;;;;;;;;;;;;;6273947;28;19912;-84
2023/10/27 18:07:51;;;;;;;;;;;;;;;;;;6297834;28;19940;-87
2023/10/27 18:10:52;;;;;;;;;;;;;;;;;;6299176;28;19917;-88
2023/10/27 18:13:52;;;;;;;;;;;;;;;;;;6280527;28;19970;-87
2023/10/27 18:16:52;;;;;;;;;;;;;;;;;;6300294;28;20388;-88
2023/10/27 18:19:52;;;;;;;;;;;;;;;;;;6302082;28;19913;-86
2023/10/27 18:22:53;;;;;;;;;;;;;;;;;;6278839;28;20304;-88
2023/10/27 18:25:53;;;;;;;;;;;;;;;;;;6277711;28;19912;-87
2023/10/27 18:28:54;;;;;;;;;;;;;;;;;;6298323;28;19913;-88
2023/10/27 18:31:54;;;;;;;;;;;;;;;;;;6278309;28;20427;-88
2023/10/27 18:34:56;;;;;;;;;;;;;;;;;;6300883;28;19919;-88
2023/10/27 18:37:56;;;;;;;;;;;;;;;;;;6287967;28;19917;-88
2023/10/27 18:40:59;;;;;;;;;;;;;;;;;;6283943;28;19939;-87
2023/10/27 18:44:00;;;;;;;;;;;;;;;;;;6291224;28;19920;-87
2023/10/27 18:47:00;;;;;;;;;;;;;;;;;;6295131;28;19913;-87
2023/10/27 18:50:00;;;;;;;;;;;;;;;;;;6295464;28;20452;-80
2023/10/27 18:53:01;;;;;;;;;;;;;;;;;;6301439;28;19919;-81
2023/10/27 18:56:01;;;;;;;;;;;;;;;;;;6280299;28;19912;-81
2023/10/27 18:59:02;;;;;;;;;;;;;;;;;;6277133;28;19913;-82
2023/10/27 19:02:02;;;;;;;;;;;;;;;;;;6297191;28;19921;-81
2023/10/27 19:05:03;;;;;;;;;;;;;;;;;;6272262;28;19952;-83
2023/10/27 19:08:03;;;;;;;;;;;;;;;;;;6292579;28;19917;-83
2023/10/27 19:11:06;;;;;;;;;;;;;;;;;;6302875;28;20103;-82
2023/10/27 19:14:06;;;;;;;;;;;;;;;;;;6276355;28;19913;-81
2023/10/27 19:17:07;;;;;;;;;;;;;;;;;;6275320;28;19932;-75
2023/10/27 19:20:09;;;;;;;;;;;;;;;;;;6270973;28;20011;-80
2023/10/27 19:23:09;;;;;;;;;;;;;;;;;;6272291;28;19967;-80
2023/10/27 19:26:09;;;;;;;;;;;;;;;;;;6272258;28;19909;-80
2023/10/27 19:29:11;;;;;;;;;;;;;;;;;;6272421;28;19909;-80
2023/10/27 19:32:12;;;;;;;;;;;;;;;;;;6277097;28;20384;-80
2023/10/27 19:35:15;;;;;;;;;;;;;;;;;;6277050;28;19909;-80
2023/10/27 19:38:15;;;;;;;;;;;;;;;;;;6277733;28;19917;-80
2023/10/27 19:41:15;;;;;;;;;;;;;;;;;;6307609;28;19967;-80
2023/10/27 19:44:16;;;;;;;;;;;;;;;;;;6301819;28;19908;-80
2023/10/27 19:47:16;;;;;;;;;;;;;;;;;;6301058;28;19908;-80
2023/10/27 19:50:16;;;;;;;;;;;;;;;;;;6301387;28;19927;-80
2023/10/27 19:53:16;;;;;;;;;;;;;;;;;;6301315;28;19919;-80
2023/10/27 19:56:16;;;;;;;;;;;;;;;;;;6301368;28;19915;-80
2023/10/27 19:59:17;;;;;;;;;;;;;;;;;;6301392;28;19912;-80
2023/10/27 20:02:17;;;;;;;;;;;;;;;;;;6301693;28;19920;-80
2023/10/27 20:05:17;;;;;;;;;;;;;;;;;;6296669;28;19958;-80
2023/10/27 20:08:17;;;;;;;;;;;;;;;;;;6283228;28;20364;-85
2023/10/27 20:11:19;;;;;;;;;;;;;;;;;;6298788;28;19959;-80
2023/10/27 20:14:19;;;;;;;;;;;;;;;;;;6300205;28;20011;-80
2023/10/27 20:17:23;;;;;;;;;;;;;;;;;;6298327;28;20034;-80
2023/10/27 20:20:24;;;;;;;;;;;;;;;;;;6309605;28;20015;-80
2023/10/27 20:23:25;;;;;;;;;;;;;;;;;;6289527;28;19921;-80
2023/10/27 20:26:25;;;;;;;;;;;;;;;;;;6260615;28;19913;-80
2023/10/27 20:29:25;;;;;;;;;;;;;;;;;;6293444;28;19974;-81